sensor_id;sensor_type;location;lat;lon;timestamp;pressure;altitude;pressure_sealevel;temperature;humidity
35806;BME280;21925;44.608;11.580;2024-02-04T00:02:04;102473.91;;;5.89;100.00
35806;BME280;21925;44.608;11.580;2024-02-04T00:04:32;102497.28;;;6.10;100.00
35806;BME280;21925;44.608;11.580;2024-02-04T00:06:59;102475.25;;;5.87;100.00
35806;BME280;21925;44.608;11.580;2024-02-04T00:09:25;102477.16;;;5.91;100.00
35806;BME280;21925;44.608;11.580;2024-02-04T00:11:54;102457.84;;;5.78;100.00
35806;BME280;21925;44.608;11.580;2024-02-04T00:14:20;102469.78;;;6.07;100.00
35806;BME280;21925;44.608;11.580;2024-02-04T00:16:45;102469.00;;;5.71;100.00
35806;BME280;21925;44.608;11.580;2024-02-04T00:19:11;102505.19;;;6.07;100.00
35806;BME280;21925;44.608;11.580;2024-02-04T00:21:37;102433.09;;;5.25;100.00
35806;BME280;21925;44.608;11.580;2024-02-04T00:24:03;102435.78;;;5.59;100.00
35806;BME280;21925;44.608;11.580;2024-02-04T00:26:29;102498.38;;;5.99;100.00
35806;BME280;21925;44.608;11.580;2024-02-04T00:28:54;102507.38;;;5.80;100.00
35806;BME280;21925;44.608;11.580;2024-02-04T00:31:20;102468.19;;;5.76;100.00
35806;BME280;21925;44.608;11.580;2024-02-04T00:33:49;102483.16;;;5.68;100.00
35806;BME280;21925;44.608;11.580;2024-02-04T00:36:15;102415.13;;;5.14;100.00
35806;BME280;21925;44.608;11.580;2024-02-04T00:38:43;102443.41;;;5.13;100.00
35806;BME280;21925;44.608;11.580;2024-02-04T00:41:09;102514.16;;;5.57;100.00
35806;BME280;21925;44.608;11.580;2024-02-04T00:43:35;102459.72;;;5.13;100.00
35806;BME280;21925;44.608;11.580;2024-02-04T00:46:01;102455.88;;;4.94;100.00
35806;BME280;21925;44.608;11.580;2024-02-04T00:48:27;102464.50;;;4.66;100.00
35806;BME280;21925;44.608;11.580;2024-02-04T00:50:53;102535.59;;;5.19;100.00
35806;BME280;21925;44.608;11.580;2024-02-04T00:53:19;102484.88;;;4.73;100.00
35806;BME280;21925;44.608;11.580;2024-02-04T00:55:44;102495.09;;;5.23;100.00
35806;BME280;21925;44.608;11.580;2024-02-04T00:58:10;102496.13;;;5.02;100.00
35806;BME280;21925;44.608;11.580;2024-02-04T01:00:39;102476.41;;;4.55;100.00
35806;BME280;21925;44.608;11.580;2024-02-04T01:03:05;102439.50;;;4.64;100.00
35806;BME280;21925;44.608;11.580;2024-02-04T01:05:31;102535.84;;;5.18;100.00
35806;BME280;21925;44.608;11.580;2024-02-04T01:07:57;102488.50;;;4.99;100.00
35806;BME280;21925;44.608;11.580;2024-02-04T01:10:23;102501.31;;;5.13;100.00
35806;BME280;21925;44.608;11.580;2024-02-04T01:12:49;102473.84;;;5.10;100.00
35806;BME280;21925;44.608;11.580;2024-02-04T01:15:15;102474.13;;;5.03;100.00
35806;BME280;21925;44.608;11.580;2024-02-04T01:17:40;102469.72;;;4.87;100.00
35806;BME280;21925;44.608;11.580;2024-02-04T01:20:07;102471.06;;;4.85;100.00
35806;BME280;21925;44.608;11.580;2024-02-04T01:22:32;102501.88;;;5.10;100.00
35806;BME280;21925;44.608;11.580;2024-02-04T01:24:58;102491.19;;;4.94;100.00
35806;BME280;21925;44.608;11.580;2024-02-04T01:27:25;102393.50;;;4.43;100.00
35806;BME280;21925;44.608;11.580;2024-02-04T01:29:50;102467.59;;;5.04;100.00
35806;BME280;21925;44.608;11.580;2024-02-04T01:32:16;102485.75;;;4.94;100.00
35806;BME280;21925;44.608;11.580;2024-02-04T01:34:42;102521.72;;;5.26;100.00
35806;BME280;21925;44.608;11.580;2024-02-04T01:37:11;102483.38;;;5.12;100.00
35806;BME280;21925;44.608;11.580;2024-02-04T01:39:37;102515.19;;;5.12;100.00
35806;BME280;21925;44.608;11.580;2024-02-04T01:42:03;102466.09;;;4.57;100.00
35806;BME280;21925;44.608;11.580;2024-02-04T01:44:31;102468.84;;;4.67;100.00
35806;BME280;21925;44.608;11.580;2024-02-04T01:46:57;102516.28;;;4.40;100.00
35806;BME280;21925;44.608;11.580;2024-02-04T01:49:23;102470.22;;;3.41;100.00
35806;BME280;21925;44.608;11.580;2024-02-04T01:51:50;102528.63;;;4.21;100.00
35806;BME280;21925;44.608;11.580;2024-02-04T01:54:16;102523.28;;;4.36;100.00
35806;BME280;21925;44.608;11.580;2024-02-04T01:56:43;102520.75;;;4.75;100.00
35806;BME280;21925;44.608;11.580;2024-02-04T01:59:12;102461.50;;;4.68;100.00
35806;BME280;21925;44.608;11.580;2024-02-04T02:01:39;102503.16;;;4.93;100.00
35806;BME280;21925;44.608;11.580;2024-02-04T02:04:05;102469.38;;;4.69;100.00
35806;BME280;21925;44.608;11.580;2024-02-04T02:06:31;102495.22;;;4.72;100.00
35806;BME280;21925;44.608;11.580;2024-02-04T02:08:59;102431.84;;;4.51;100.00
35806;BME280;21925;44.608;11.580;2024-02-04T02:14:06;102470.53;;;4.22;100.00
35806;BME280;21925;44.608;11.580;2024-02-04T02:16:34;102526.91;;;4.51;100.00
35806;BME280;21925;44.608;11.580;2024-02-04T02:19:31;102466.81;;;3.87;100.00
35806;BME280;21925;44.608;11.580;2024-02-04T02:22:11;102535.69;;;4.22;100.00
35806;BME280;21925;44.608;11.580;2024-02-04T02:24:42;102519.03;;;4.03;100.00
35806;BME280;21925;44.608;11.580;2024-02-04T02:27:08;102530.88;;;3.92;100.00
35806;BME280;21925;44.608;11.580;2024-02-04T02:29:34;102483.38;;;3.54;100.00
35806;BME280;21925;44.608;11.580;2024-02-04T02:32:00;102526.44;;;3.82;100.00
35806;BME280;21925;44.608;11.580;2024-02-04T02:34:29;102542.31;;;3.99;100.00
35806;BME280;21925;44.608;11.580;2024-02-04T02:40:27;102518.56;;;4.21;100.00
35806;BME280;21925;44.608;11.580;2024-02-04T02:42:57;102477.91;;;3.85;100.00
35806;BME280;21925;44.608;11.580;2024-02-04T02:45:27;102488.22;;;4.29;100.00
35806;BME280;21925;44.608;11.580;2024-02-04T02:47:54;102478.44;;;4.28;100.00
35806;BME280;21925;44.608;11.580;2024-02-04T02:50:20;102500.56;;;4.52;100.00
35806;BME280;21925;44.608;11.580;2024-02-04T02:52:46;102495.13;;;4.52;100.00
35806;BME280;21925;44.608;11.580;2024-02-04T02:55:13;102505.91;;;4.37;100.00
35806;BME280;21925;44.608;11.580;2024-02-04T02:57:39;102440.41;;;3.77;100.00
35806;BME280;21925;44.608;11.580;2024-02-04T03:00:06;102488.31;;;3.62;100.00
35806;BME280;21925;44.608;11.580;2024-02-04T03:02:32;102496.09;;;3.22;100.00
35806;BME280;21925;44.608;11.580;2024-02-04T03:04:58;102483.28;;;3.44;100.00
35806;BME280;21925;44.608;11.580;2024-02-04T03:07:24;102469.66;;;3.70;100.00
35806;BME280;21925;44.608;11.580;2024-02-04T03:09:52;102498.81;;;3.22;100.00
35806;BME280;21925;44.608;11.580;2024-02-04T03:12:19;102488.16;;;2.68;100.00
35806;BME280;21925;44.608;11.580;2024-02-04T03:14:47;102521.41;;;3.32;100.00
35806;BME280;21925;44.608;11.580;2024-02-04T03:17:16;102475.25;;;3.59;100.00
35806;BME280;21925;44.608;11.580;2024-02-04T03:19:50;102479.13;;;3.68;100.00
35806;BME280;21925;44.608;11.580;2024-02-04T03:22:23;102457.34;;;3.58;100.00
35806;BME280;21925;44.608;11.580;2024-02-04T03:24:50;102440.19;;;3.84;100.00
35806;BME280;21925;44.608;11.580;2024-02-04T03:27:17;102475.34;;;4.10;100.00
35806;BME280;21925;44.608;11.580;2024-02-04T03:29:44;102514.84;;;4.27;100.00
35806;BME280;21925;44.608;11.580;2024-02-04T03:32:11;102443.19;;;3.51;100.00
35806;BME280;21925;44.608;11.580;2024-02-04T03:34:37;102531.03;;;3.50;100.00
35806;BME280;21925;44.608;11.580;2024-02-04T03:37:06;102496.56;;;3.45;100.00
35806;BME280;21925;44.608;11.580;2024-02-04T03:39:32;102475.47;;;3.52;100.00
35806;BME280;21925;44.608;11.580;2024-02-04T03:41:58;102490.94;;;3.88;100.00
35806;BME280;21925;44.608;11.580;2024-02-04T03:44:24;102520.41;;;4.11;100.00
35806;BME280;21925;44.608;11.580;2024-02-04T03:46:51;102490.88;;;3.78;100.00
35806;BME280;21925;44.608;11.580;2024-02-04T03:49:17;102423.31;;;3.40;100.00
35806;BME280;21925;44.608;11.580;2024-02-04T03:51:43;102493.28;;;3.75;100.00
35806;BME280;21925;44.608;11.580;2024-02-04T03:54:09;102519.03;;;4.03;100.00
35806;BME280;21925;44.608;11.580;2024-02-04T03:56:36;102520.34;;;4.01;100.00
35806;BME280;21925;44.608;11.580;2024-02-04T03:59:02;102447.38;;;3.32;100.00
35806;BME280;21925;44.608;11.580;2024-02-04T04:01:28;102487.88;;;3.17;100.00
35806;BME280;21925;44.608;11.580;2024-02-04T04:03:54;102446.53;;;3.00;100.00
35806;BME280;21925;44.608;11.580;2024-02-04T04:06:20;102444.41;;;3.33;100.00
35806;BME280;21925;44.608;11.580;2024-02-04T04:08:45;102491.91;;;3.72;100.00
35806;BME280;21925;44.608;11.580;2024-02-04T04:11:12;102453.44;;;3.75;100.00
35806;BME280;21925;44.608;11.580;2024-02-04T04:13:38;102433.47;;;3.55;100.00
35806;BME280;21925;44.608;11.580;2024-02-04T04:16:05;102465.97;;;3.86;100.00
35806;BME280;21925;44.608;11.580;2024-02-04T04:18:31;102418.66;;;3.67;100.00
35806;BME280;21925;44.608;11.580;2024-02-04T04:20:58;102381.22;;;3.28;100.00
35806;BME280;21925;44.608;11.580;2024-02-04T04:23:23;102400.88;;;3.50;100.00
35806;BME280;21925;44.608;11.580;2024-02-04T04:25:49;102436.78;;;3.62;100.00
35806;BME280;21925;44.608;11.580;2024-02-04T04:28:15;102385.31;;;3.35;100.00
35806;BME280;21925;44.608;11.580;2024-02-04T04:30:41;102387.31;;;3.45;100.00
35806;BME280;21925;44.608;11.580;2024-02-04T04:33:07;102366.59;;;3.29;100.00
35806;BME280;21925;44.608;11.580;2024-02-04T04:35:33;102379.72;;;3.47;100.00
35806;BME280;21925;44.608;11.580;2024-02-04T04:38:00;102418.97;;;3.76;100.00
35806;BME280;21925;44.608;11.580;2024-02-04T04:40:26;102317.94;;;3.13;100.00
35806;BME280;21925;44.608;11.580;2024-02-04T04:42:52;102387.13;;;3.61;100.00
35806;BME280;21925;44.608;11.580;2024-02-04T04:45:18;102399.91;;;3.66;100.00
35806;BME280;21925;44.608;11.580;2024-02-04T04:47:44;102369.75;;;3.57;100.00
35806;BME280;21925;44.608;11.580;2024-02-04T04:50:10;102426.41;;;3.90;100.00
35806;BME280;21925;44.608;11.580;2024-02-04T04:52:36;102338.09;;;3.26;100.00
35806;BME280;21925;44.608;11.580;2024-02-04T04:55:03;102318.44;;;2.47;100.00
35806;BME280;21925;44.608;11.580;2024-02-04T04:57:30;102430.66;;;2.82;100.00
35806;BME280;21925;44.608;11.580;2024-02-04T04:59:55;102404.16;;;2.63;100.00
35806;BME280;21925;44.608;11.580;2024-02-04T05:02:24;102401.97;;;2.60;100.00
35806;BME280;21925;44.608;11.580;2024-02-04T05:04:49;102389.13;;;2.50;100.00
35806;BME280;21925;44.608;11.580;2024-02-04T05:07:15;102436.84;;;2.78;100.00
35806;BME280;21925;44.608;11.580;2024-02-04T05:09:41;102430.19;;;2.42;100.00
35806;BME280;21925;44.608;11.580;2024-02-04T05:12:08;102438.94;;;2.49;100.00
35806;BME280;21925;44.608;11.580;2024-02-04T05:14:35;102402.69;;;2.29;100.00
35806;BME280;21925;44.608;11.580;2024-02-04T05:17:01;102452.81;;;2.79;100.00
35806;BME280;21925;44.608;11.580;2024-02-04T05:19:26;102418.34;;;2.48;100.00
35806;BME280;21925;44.608;11.580;2024-02-04T05:21:52;102457.44;;;2.57;100.00
35806;BME280;21925;44.608;11.580;2024-02-04T05:24:18;102501.25;;;2.76;100.00
35806;BME280;21925;44.608;11.580;2024-02-04T05:26:44;102462.91;;;2.62;100.00
35806;BME280;21925;44.608;11.580;2024-02-04T05:29:10;102509.75;;;2.84;100.00
35806;BME280;21925;44.608;11.580;2024-02-04T05:31:45;102483.34;;;2.48;100.00
35806;BME280;21925;44.608;11.580;2024-02-04T05:34:10;102520.41;;;2.48;100.00
35806;BME280;21925;44.608;11.580;2024-02-04T05:36:36;102530.72;;;2.51;100.00
35806;BME280;21925;44.608;11.580;2024-02-04T05:39:13;102508.19;;;2.45;100.00
35806;BME280;21925;44.608;11.580;2024-02-04T05:41:40;102469.59;;;2.12;100.00
35806;BME280;21925;44.608;11.580;2024-02-04T05:44:06;102461.78;;;2.16;100.00
35806;BME280;21925;44.608;11.580;2024-02-04T05:46:38;102535.19;;;2.83;100.00
35806;BME280;21925;44.608;11.580;2024-02-04T05:49:04;102503.16;;;2.54;100.00
35806;BME280;21925;44.608;11.580;2024-02-04T05:51:40;102507.16;;;2.51;100.00
35806;BME280;21925;44.608;11.580;2024-02-04T05:54:07;102544.97;;;2.84;100.00
35806;BME280;21925;44.608;11.580;2024-02-04T05:56:34;102528.06;;;2.99;100.00
35806;BME280;21925;44.608;11.580;2024-02-04T05:58:59;102517.38;;;2.66;100.00
35806;BME280;21925;44.608;11.580;2024-02-04T06:01:25;102536.97;;;2.94;100.00
35806;BME280;21925;44.608;11.580;2024-02-04T06:03:51;102475.00;;;2.76;100.00
35806;BME280;21925;44.608;11.580;2024-02-04T06:06:18;102484.97;;;2.49;100.00
35806;BME280;21925;44.608;11.580;2024-02-04T06:08:47;102523.47;;;2.99;100.00
35806;BME280;21925;44.608;11.580;2024-02-04T06:11:13;102489.25;;;2.45;100.00
35806;BME280;21925;44.608;11.580;2024-02-04T06:13:41;102551.69;;;3.03;100.00
35806;BME280;21925;44.608;11.580;2024-02-04T06:16:07;102523.28;;;2.84;100.00
35806;BME280;21925;44.608;11.580;2024-02-04T06:18:35;102527.34;;;2.82;100.00
35806;BME280;21925;44.608;11.580;2024-02-04T06:21:03;102588.00;;;2.81;100.00
35806;BME280;21925;44.608;11.580;2024-02-04T06:23:29;102524.91;;;2.21;100.00
35806;BME280;21925;44.608;11.580;2024-02-04T06:25:55;102569.28;;;2.20;100.00
35806;BME280;21925;44.608;11.580;2024-02-04T06:28:21;102572.63;;;2.11;100.00
35806;BME280;21925;44.608;11.580;2024-02-04T06:30:48;102544.19;;;1.59;100.00
35806;BME280;21925;44.608;11.580;2024-02-04T06:33:14;102585.41;;;1.66;100.00
35806;BME280;21925;44.608;11.580;2024-02-04T06:35:40;102582.03;;;1.59;100.00
35806;BME280;21925;44.608;11.580;2024-02-04T06:38:06;102597.03;;;1.66;100.00
35806;BME280;21925;44.608;11.580;2024-02-04T06:40:32;102579.53;;;1.41;100.00
35806;BME280;21925;44.608;11.580;2024-02-04T06:42:58;102567.19;;;1.45;100.00
35806;BME280;21925;44.608;11.580;2024-02-04T06:45:23;102639.88;;;2.02;100.00
35806;BME280;21925;44.608;11.580;2024-02-04T06:47:49;102657.41;;;2.00;100.00
35806;BME280;21925;44.608;11.580;2024-02-04T06:50:15;102636.78;;;1.82;100.00
35806;BME280;21925;44.608;11.580;2024-02-04T06:52:43;102585.72;;;1.53;100.00
35806;BME280;21925;44.608;11.580;2024-02-04T06:55:10;102661.03;;;2.22;100.00
35806;BME280;21925;44.608;11.580;2024-02-04T06:57:36;102640.00;;;1.79;100.00
35806;BME280;21925;44.608;11.580;2024-02-04T07:00:02;102666.75;;;2.09;100.00
35806;BME280;21925;44.608;11.580;2024-02-04T07:02:31;102612.91;;;1.63;100.00
35806;BME280;21925;44.608;11.580;2024-02-04T07:04:57;102626.72;;;2.11;100.00
35806;BME280;21925;44.608;11.580;2024-02-04T07:07:23;102651.91;;;2.28;100.00
35806;BME280;21925;44.608;11.580;2024-02-04T07:09:49;102678.59;;;1.75;100.00
35806;BME280;21925;44.608;11.580;2024-02-04T07:12:14;102647.97;;;1.58;100.00
35806;BME280;21925;44.608;11.580;2024-02-04T07:14:40;102703.47;;;2.05;100.00
35806;BME280;21925;44.608;11.580;2024-02-04T07:17:06;102713.03;;;1.96;100.00
35806;BME280;21925;44.608;11.580;2024-02-04T07:19:32;102742.53;;;2.09;100.00
35806;BME280;21925;44.608;11.580;2024-02-04T07:21:58;102695.28;;;2.16;100.00
35806;BME280;21925;44.608;11.580;2024-02-04T07:24:24;102718.09;;;2.69;100.00
35806;BME280;21925;44.608;11.580;2024-02-04T07:26:50;102667.97;;;2.50;100.00
35806;BME280;21925;44.608;11.580;2024-02-04T07:29:16;102689.38;;;2.85;100.00
35806;BME280;21925;44.608;11.580;2024-02-04T07:31:42;102642.69;;;2.61;100.00
35806;BME280;21925;44.608;11.580;2024-02-04T07:34:08;102660.59;;;2.62;100.00
35806;BME280;21925;44.608;11.580;2024-02-04T07:36:34;102690.38;;;2.62;100.00
35806;BME280;21925;44.608;11.580;2024-02-04T07:39:00;102717.69;;;2.77;100.00
35806;BME280;21925;44.608;11.580;2024-02-04T07:41:27;102704.78;;;3.22;100.00
35806;BME280;21925;44.608;11.580;2024-02-04T07:43:53;102684.47;;;3.03;100.00
35806;BME280;21925;44.608;11.580;2024-02-04T07:46:19;102725.31;;;3.18;100.00
35806;BME280;21925;44.608;11.580;2024-02-04T07:48:45;102658.31;;;2.92;100.00
35806;BME280;21925;44.608;11.580;2024-02-04T07:51:12;102708.50;;;3.59;100.00
35806;BME280;21925;44.608;11.580;2024-02-04T07:53:38;102691.22;;;3.43;100.00
35806;BME280;21925;44.608;11.580;2024-02-04T07:56:05;102664.50;;;3.30;100.00
35806;BME280;21925;44.608;11.580;2024-02-04T07:58:32;102712.91;;;3.65;100.00
35806;BME280;21925;44.608;11.580;2024-02-04T08:00:58;102713.75;;;3.92;100.00
35806;BME280;21925;44.608;11.580;2024-02-04T08:03:24;102660.69;;;3.26;100.00
35806;BME280;21925;44.608;11.580;2024-02-04T08:05:50;102699.06;;;3.88;100.00
35806;BME280;21925;44.608;11.580;2024-02-04T08:08:16;102692.63;;;3.93;100.00
35806;BME280;21925;44.608;11.580;2024-02-04T08:10:42;102710.53;;;3.94;100.00
35806;BME280;21925;44.608;11.580;2024-02-04T08:13:08;102649.25;;;3.72;100.00
35806;BME280;21925;44.608;11.580;2024-02-04T08:15:34;102685.94;;;4.37;100.00
35806;BME280;21925;44.608;11.580;2024-02-04T08:18:00;102664.47;;;4.31;100.00
35806;BME280;21925;44.608;11.580;2024-02-04T08:20:27;102664.16;;;4.27;100.00
35806;BME280;21925;44.608;11.580;2024-02-04T08:23:03;102728.16;;;4.86;100.00
35806;BME280;21925;44.608;11.580;2024-02-04T08:25:29;102699.41;;;4.95;100.00
35806;BME280;21925;44.608;11.580;2024-02-04T08:27:55;102715.38;;;5.28;100.00
35806;BME280;21925;44.608;11.580;2024-02-04T08:30:21;102718.22;;;5.57;100.00
35806;BME280;21925;44.608;11.580;2024-02-04T08:32:47;102714.97;;;5.60;100.00
35806;BME280;21925;44.608;11.580;2024-02-04T08:35:13;102721.66;;;5.94;100.00
35806;BME280;21925;44.608;11.580;2024-02-04T08:37:39;102656.28;;;5.84;100.00
35806;BME280;21925;44.608;11.580;2024-02-04T08:40:09;102707.56;;;6.42;100.00
35806;BME280;21925;44.608;11.580;2024-02-04T08:42:38;102717.59;;;6.91;100.00
35806;BME280;21925;44.608;11.580;2024-02-04T08:45:07;102611.91;;;6.43;100.00
35806;BME280;21925;44.608;11.580;2024-02-04T08:47:37;102653.59;;;6.69;100.00
35806;BME280;21925;44.608;11.580;2024-02-04T08:50:03;102658.44;;;6.92;100.00
35806;BME280;21925;44.608;11.580;2024-02-04T08:52:29;102685.06;;;7.24;100.00
35806;BME280;21925;44.608;11.580;2024-02-04T08:54:56;102642.53;;;7.13;100.00
35806;BME280;21925;44.608;11.580;2024-02-04T08:57:22;102623.13;;;7.30;100.00
35806;BME280;21925;44.608;11.580;2024-02-04T08:59:49;102701.13;;;7.89;100.00
35806;BME280;21925;44.608;11.580;2024-02-04T09:02:15;102612.09;;;7.50;100.00
35806;BME280;21925;44.608;11.580;2024-02-04T09:04:40;102639.38;;;7.93;100.00
35806;BME280;21925;44.608;11.580;2024-02-04T09:07:07;102671.41;;;8.26;100.00
35806;BME280;21925;44.608;11.580;2024-02-04T09:09:33;102633.91;;;7.93;100.00
35806;BME280;21925;44.608;11.580;2024-02-04T09:11:59;102682.81;;;8.38;100.00
35806;BME280;21925;44.608;11.580;2024-02-04T09:14:25;102645.31;;;8.43;100.00
35806;BME280;21925;44.608;11.580;2024-02-04T09:16:52;102677.53;;;8.74;100.00
35806;BME280;21925;44.608;11.580;2024-02-04T09:19:18;102611.63;;;8.19;100.00
35806;BME280;21925;44.608;11.580;2024-02-04T09:21:44;102679.78;;;8.68;100.00
35806;BME280;21925;44.608;11.580;2024-02-04T09:24:09;102663.47;;;8.58;100.00
35806;BME280;21925;44.608;11.580;2024-02-04T09:26:36;102631.72;;;8.62;100.00
35806;BME280;21925;44.608;11.580;2024-02-04T09:29:02;102673.22;;;9.20;100.00
35806;BME280;21925;44.608;11.580;2024-02-04T09:31:28;102575.44;;;8.84;100.00
35806;BME280;21925;44.608;11.580;2024-02-04T09:33:55;102656.28;;;9.60;100.00
35806;BME280;21925;44.608;11.580;2024-02-04T09:36:21;102596.47;;;9.49;100.00
35806;BME280;21925;44.608;11.580;2024-02-04T09:38:48;102640.53;;;9.70;100.00
35806;BME280;21925;44.608;11.580;2024-02-04T09:41:14;102616.88;;;9.74;100.00
35806;BME280;21925;44.608;11.580;2024-02-04T09:43:40;102656.84;;;9.99;100.00
35806;BME280;21925;44.608;11.580;2024-02-04T09:46:07;102612.59;;;9.68;100.00
35806;BME280;21925;44.608;11.580;2024-02-04T09:48:34;102666.38;;;10.20;100.00
35806;BME280;21925;44.608;11.580;2024-02-04T09:51:02;102666.25;;;10.11;100.00
35806;BME280;21925;44.608;11.580;2024-02-04T09:53:35;102614.09;;;9.79;100.00
35806;BME280;21925;44.608;11.580;2024-02-04T09:56:05;102620.03;;;10.05;100.00
35806;BME280;21925;44.608;11.580;2024-02-04T09:58:32;102665.00;;;10.35;100.00
35806;BME280;21925;44.608;11.580;2024-02-04T10:01:00;102599.13;;;10.09;100.00
35806;BME280;21925;44.608;11.580;2024-02-04T10:03:26;102670.41;;;10.72;100.00
35806;BME280;21925;44.608;11.580;2024-02-04T10:05:53;102630.66;;;10.56;100.00
35806;BME280;21925;44.608;11.580;2024-02-04T10:08:19;102650.53;;;10.80;100.00
35806;BME280;21925;44.608;11.580;2024-02-04T10:10:47;102599.38;;;10.84;100.00
35806;BME280;21925;44.608;11.580;2024-02-04T10:13:13;102619.00;;;10.91;100.00
35806;BME280;21925;44.608;11.580;2024-02-04T10:15:39;102599.09;;;11.12;100.00
35806;BME280;21925;44.608;11.580;2024-02-04T10:18:06;102621.84;;;11.40;100.00
35806;BME280;21925;44.608;11.580;2024-02-04T10:20:33;102626.72;;;11.70;100.00
35806;BME280;21925;44.608;11.580;2024-02-04T10:23:03;102588.81;;;11.80;100.00
35806;BME280;21925;44.608;11.580;2024-02-04T10:25:29;102576.28;;;12.09;100.00
35806;BME280;21925;44.608;11.580;2024-02-04T10:27:55;102599.00;;;12.23;100.00
35806;BME280;21925;44.608;11.580;2024-02-04T10:30:22;102599.56;;;12.34;100.00
35806;BME280;21925;44.608;11.580;2024-02-04T10:32:52;102617.31;;;12.80;100.00
35806;BME280;21925;44.608;11.580;2024-02-04T10:35:20;102595.84;;;12.90;100.00
35806;BME280;21925;44.608;11.580;2024-02-04T10:37:52;102595.88;;;12.99;100.00
35806;BME280;21925;44.608;11.580;2024-02-04T10:40:18;102608.97;;;13.41;100.00
35806;BME280;21925;44.608;11.580;2024-02-04T10:42:44;102608.84;;;13.62;100.00
35806;BME280;21925;44.608;11.580;2024-02-04T10:45:11;102602.50;;;13.79;100.00
35806;BME280;21925;44.608;11.580;2024-02-04T10:47:40;102602.84;;;14.20;100.00
35806;BME280;21925;44.608;11.580;2024-02-04T10:50:07;102586.31;;;14.28;100.00
35806;BME280;21925;44.608;11.580;2024-02-04T10:52:39;102589.38;;;14.35;100.00
35806;BME280;21925;44.608;11.580;2024-02-04T10:55:07;102596.09;;;14.71;100.00
35806;BME280;21925;44.608;11.580;2024-02-04T10:57:34;102585.84;;;14.72;100.00
35806;BME280;21925;44.608;11.580;2024-02-04T11:00:01;102553.06;;;14.62;100.00
35806;BME280;21925;44.608;11.580;2024-02-04T11:02:31;102563.09;;;14.75;100.00
35806;BME280;21925;44.608;11.580;2024-02-04T11:05:00;102563.16;;;14.95;100.00
35806;BME280;21925;44.608;11.580;2024-02-04T11:07:33;102552.81;;;15.13;100.00
35806;BME280;21925;44.608;11.580;2024-02-04T11:10:02;102551.47;;;15.18;100.00
35806;BME280;21925;44.608;11.580;2024-02-04T11:12:30;102549.13;;;15.37;100.00
35806;BME280;21925;44.608;11.580;2024-02-04T11:15:01;102521.09;;;15.47;100.00
35806;BME280;21925;44.608;11.580;2024-02-04T11:20:30;102529.72;;;15.66;100.00
35806;BME280;21925;44.608;11.580;2024-02-04T11:25:49;102508.72;;;15.86;100.00
35806;BME280;21925;44.608;11.580;2024-02-04T11:28:16;102507.00;;;15.93;100.00
35806;BME280;21925;44.608;11.580;2024-02-04T11:30:45;102508.63;;;15.94;100.00
35806;BME280;21925;44.608;11.580;2024-02-04T11:33:12;102517.03;;;15.97;100.00
35806;BME280;21925;44.608;11.580;2024-02-04T11:35:38;102515.28;;;15.93;100.00
35806;BME280;21925;44.608;11.580;2024-02-04T11:38:04;102497.47;;;16.35;100.00
35806;BME280;21925;44.608;11.580;2024-02-04T11:40:39;102481.25;;;16.25;100.00
35806;BME280;21925;44.608;11.580;2024-02-04T11:43:06;102480.38;;;16.33;100.00
35806;BME280;21925;44.608;11.580;2024-02-04T11:45:31;102474.28;;;16.39;100.00
35806;BME280;21925;44.608;11.580;2024-02-04T11:48:01;102479.38;;;16.61;100.00
35806;BME280;21925;44.608;11.580;2024-02-04T11:50:28;102465.53;;;16.73;100.00
35806;BME280;21925;44.608;11.580;2024-02-04T11:53:11;102476.47;;;16.81;100.00
35806;BME280;21925;44.608;11.580;2024-02-04T11:55:41;102466.91;;;16.79;100.00
35806;BME280;21925;44.608;11.580;2024-02-04T11:58:08;102442.22;;;16.74;100.00
35806;BME280;21925;44.608;11.580;2024-02-04T12:00:35;102455.56;;;17.08;100.00
35806;BME280;21925;44.608;11.580;2024-02-04T12:03:02;102450.19;;;16.87;100.00
35806;BME280;21925;44.608;11.580;2024-02-04T12:05:31;102442.94;;;17.34;100.00
35806;BME280;21925;44.608;11.580;2024-02-04T12:08:07;102463.84;;;17.32;100.00
35806;BME280;21925;44.608;11.580;2024-02-04T12:10:36;102439.53;;;17.41;100.00
35806;BME280;21925;44.608;11.580;2024-02-04T12:13:04;102448.47;;;17.22;100.00
35806;BME280;21925;44.608;11.580;2024-02-04T12:15:31;102435.38;;;17.47;100.00
35806;BME280;21925;44.608;11.580;2024-02-04T12:18:07;102438.44;;;17.57;100.00
35806;BME280;21925;44.608;11.580;2024-02-04T12:20:33;102441.69;;;17.59;100.00
35806;BME280;21925;44.608;11.580;2024-02-04T12:23:01;102440.91;;;17.47;100.00
35806;BME280;21925;44.608;11.580;2024-02-04T12:25:27;102438.06;;;17.31;100.00
35806;BME280;21925;44.608;11.580;2024-02-04T12:27:55;102436.06;;;17.44;100.00
35806;BME280;21925;44.608;11.580;2024-02-04T12:30:21;102435.88;;;17.64;100.00
35806;BME280;21925;44.608;11.580;2024-02-04T12:32:56;102451.25;;;17.61;100.00
35806;BME280;21925;44.608;11.580;2024-02-04T12:35:22;102442.63;;;17.51;100.00
35806;BME280;21925;44.608;11.580;2024-02-04T12:37:55;102446.81;;;17.45;100.00
35806;BME280;21925;44.608;11.580;2024-02-04T12:40:26;102442.63;;;17.51;100.00
35806;BME280;21925;44.608;11.580;2024-02-04T12:42:57;102441.31;;;17.33;100.00
35806;BME280;21925;44.608;11.580;2024-02-04T12:45:24;102432.28;;;17.24;100.00
35806;BME280;21925;44.608;11.580;2024-02-04T12:47:54;102416.16;;;17.14;100.00
35806;BME280;21925;44.608;11.580;2024-02-04T12:50:20;102425.38;;;17.18;100.00